Terminal Aerodrome Forecast
Issued by NWS

Home | Current Version | Previous Version | Text Only | Print | Product List | Glossary Off
Versions: 1 2 3 4 5 6 7 8 9 10 11 12 13 14 15 16 17 18 19 20

000
FTUS43 KGRB 180500 AAB
TAFAUW
TAF AMD
KAUW 180505Z 1805/1824 34005KT P6SM OVC013
      TEMPO 1805/1809 OVC020
     FM180900 35003KT P6SM OVC025
     FM181800 03003KT P6SM BKN250=

USA.gov is the U.S. government's official web portal to all federal, state and local government web resources and services.